createdAt,value
2022-11-16T00:04:29.669Z,173.10
2022-11-16T00:09:34.077Z,171.57
2022-11-16T00:14:39.270Z,184.02
2022-11-16T00:19:43.161Z,196.23
2022-11-16T00:24:46.985Z,203.18
2022-11-16T00:29:52.473Z,242.65
2022-11-16T00:34:56.379Z,225.18
2022-11-16T00:40:00.163Z,241.85
2022-11-16T00:45:06.790Z,250.43
2022-11-16T00:50:10.997Z,262.48
2022-11-16T00:55:15.033Z,261.55
2022-11-16T01:00:21.029Z,278.38
2022-11-16T01:10:30.679Z,241.68
2022-11-16T01:15:35.916Z,242.98
2022-11-16T01:20:41.949Z,237.73
2022-11-16T01:30:50.994Z,237.73
2022-11-16T01:35:55.070Z,236.13
2022-11-16T01:46:08.353Z,263.88
2022-11-16T01:51:12.722Z,255.43
2022-11-16T01:56:16.623Z,248.18
2022-11-16T02:01:37.335Z,242.60
2022-11-16T02:06:55.346Z,257.30
2022-11-16T02:12:13.650Z,251.77
2022-11-16T02:17:27.044Z,271.20
2022-11-16T02:22:43.475Z,282.77
2022-11-16T02:28:06.527Z,270.60
2022-11-16T02:33:14.021Z,261.10
2022-11-16T02:38:20.478Z,288.77
2022-11-16T02:43:30.849Z,312.05
2022-11-16T02:48:39.723Z,338.35
2022-11-16T02:53:54.234Z,337.92
2022-11-16T02:58:59.170Z,321.23
2022-11-16T03:04:11.686Z,315.23
2022-11-16T03:09:19.708Z,301.35
2022-11-16T03:14:25.355Z,279.80
2022-11-16T03:19:35.549Z,269.13
2022-11-16T03:24:39.820Z,273.73
2022-11-16T03:29:48.557Z,269.50
2022-11-16T03:34:57.844Z,266.77
2022-11-16T03:40:03.587Z,262.70
2022-11-16T03:45:10.474Z,278.55
2022-11-16T03:50:16.355Z,263.98
2022-11-16T03:55:20.817Z,256.90
2022-11-16T04:00:25.193Z,255.50
2022-11-16T04:05:50.405Z,255.05
2022-11-16T04:11:11.999Z,281.98
2022-11-16T04:16:33.502Z,260.90
2022-11-16T04:21:58.322Z,268.27
2022-11-16T04:27:28.202Z,274.58
2022-11-16T04:32:49.717Z,263.42
2022-11-16T04:37:57.312Z,253.57
2022-11-16T04:43:07.499Z,240.88
2022-11-16T04:48:16.894Z,240.18
2022-11-16T04:53:27.185Z,224.05
2022-11-16T04:58:42.051Z,206.60
2022-11-16T05:03:47.270Z,189.97
2022-11-16T05:08:52.709Z,189.55
2022-11-16T05:13:56.656Z,201.67
2022-11-16T05:19:18.259Z,220.70
2022-11-16T05:24:35.666Z,212.65
2022-11-16T05:29:41.477Z,189.43
2022-11-16T05:34:46.193Z,185.25
2022-11-16T05:39:53.093Z,200.40
2022-11-16T05:44:58.645Z,199.73
2022-11-16T05:50:02.641Z,195.98
2022-11-16T05:55:13.596Z,202.43
2022-11-16T06:00:21.510Z,182.98
2022-11-16T06:05:28.555Z,186.63
2022-11-16T06:10:37.009Z,201.65
2022-11-16T06:15:42.468Z,200.07
2022-11-16T06:20:47.090Z,231.50
2022-11-16T06:25:56.034Z,239.55
2022-11-16T06:31:03.014Z,227.82
2022-11-16T06:36:11.209Z,193.05
2022-11-16T06:41:16.538Z,187.18
2022-11-16T06:46:25.549Z,173.40
2022-11-16T06:51:30.305Z,177.57
2022-11-16T06:56:36.859Z,158.95
2022-11-16T07:01:41.209Z,190.82
2022-11-16T07:06:49.117Z,190.50
2022-11-16T07:11:55.768Z,218.17
2022-11-16T07:17:05.210Z,200.45
2022-11-16T07:22:12.044Z,202.57
2022-11-16T07:27:17.462Z,212.63
2022-11-16T07:32:25.493Z,183.48
2022-11-16T07:37:49.077Z,160.63
2022-11-16T07:42:54.685Z,148.93
2022-11-16T07:48:02.344Z,145.07
2022-11-16T07:53:24.752Z,138.82
2022-11-16T07:58:33.474Z,151.35
2022-11-16T08:03:38.258Z,149.43
2022-11-16T08:08:43.190Z,156.90
2022-11-16T08:13:48.973Z,142.88
2022-11-16T08:18:54.332Z,148.50
2022-11-16T08:23:59.289Z,138.15
2022-11-16T08:29:05.793Z,134.07
2022-11-16T08:34:13.213Z,118.72
2022-11-16T08:39:20.835Z,106.90
2022-11-16T08:44:26.300Z,120.03
2022-11-16T08:49:32.968Z,114.90
2022-11-16T08:54:37.311Z,97.93
2022-11-16T08:59:43.785Z,95.97
2022-11-16T09:04:50.605Z,98.28
2022-11-16T09:09:54.405Z,95.85
2022-11-16T09:14:59.765Z,93.28
2022-11-16T09:20:03.628Z,90.70
2022-11-16T09:25:09.485Z,93.18
2022-11-16T09:35:20.812Z,109.57
2022-11-16T09:40:36.419Z,100.72
2022-11-16T09:45:46.061Z,113.73
2022-11-16T09:50:52.046Z,91.38
2022-11-16T10:01:05.147Z,110.25
2022-11-16T10:06:16.828Z,101.35
2022-11-16T10:11:32.858Z,87.13
2022-11-16T10:16:40.343Z,66.25
2022-11-16T10:21:51.537Z,48.42
2022-11-16T10:27:04.336Z,49.40
2022-11-16T10:32:16.594Z,45.13
2022-11-16T10:37:21.051Z,45.08
2022-11-16T10:42:29.876Z,44.22
2022-11-16T10:47:38.673Z,42.45
2022-11-16T10:52:42.470Z,47.13
2022-11-16T10:57:56.772Z,53.90
2022-11-16T11:03:01.956Z,47.83
2022-11-16T11:08:07.459Z,37.13
2022-11-16T11:13:23.999Z,42.93
2022-11-16T11:18:30.318Z,34.80
2022-11-16T11:23:41.869Z,28.27
2022-11-16T11:28:49.104Z,29.13
2022-11-16T11:33:56.194Z,31.85
2022-11-16T11:39:01.644Z,29.40
2022-11-16T11:44:06.753Z,32.95
2022-11-16T11:49:17.518Z,37.35
2022-11-16T11:54:24.530Z,36.38
2022-11-16T11:59:28.720Z,29.20
2022-11-16T12:05:05.860Z,29.48
2022-11-16T12:10:18.107Z,24.33
2022-11-16T12:15:37.330Z,25.38
2022-11-16T12:20:46.799Z,29.73
2022-11-16T12:25:56.605Z,28.17
2022-11-16T12:31:16.444Z,27.42
2022-11-16T12:36:29.850Z,24.80
2022-11-16T12:41:43.764Z,24.90
2022-11-16T12:46:53.854Z,27.55
2022-11-16T12:52:08.630Z,24.90
2022-11-16T12:57:16.585Z,24.75
2022-11-16T13:02:29.665Z,24.15
2022-11-16T13:07:40.418Z,26.77
2022-11-16T13:12:44.828Z,29.58
2022-11-16T13:17:53.431Z,29.25
2022-11-16T13:23:02.069Z,30.35
2022-11-16T13:28:11.496Z,30.77
2022-11-16T13:33:29.067Z,31.58
2022-11-16T13:38:53.438Z,31.85
2022-11-16T13:43:57.333Z,30.73
2022-11-16T13:49:01.182Z,28.48
2022-11-16T13:59:33.115Z,21.03
2022-11-16T14:04:56.014Z,25.10
2022-11-16T14:10:01.560Z,24.48
2022-11-16T14:15:15.194Z,24.75
2022-11-16T14:20:30.123Z,23.70
2022-11-16T14:25:39.842Z,25.50
2022-11-16T14:30:57.829Z,25.65
2022-11-16T14:36:03.555Z,27.55
2022-11-16T14:41:14.119Z,26.70
2022-11-16T14:46:22.654Z,29.67
2022-11-16T14:51:28.641Z,29.27
2022-11-16T15:01:40.563Z,33.35
2022-11-16T15:06:47.805Z,34.25
2022-11-16T15:12:11.211Z,34.47
2022-11-16T15:17:18.654Z,36.15
2022-11-16T15:22:23.001Z,38.45
2022-11-16T15:27:39.412Z,41.58
2022-11-16T15:32:43.935Z,39.72
2022-11-16T15:37:47.927Z,44.88
2022-11-16T15:42:53.436Z,46.10
2022-11-16T15:47:58.947Z,51.55
2022-11-16T15:53:02.815Z,50.95
2022-11-16T15:58:19.100Z,57.38
2022-11-16T16:08:32.149Z,56.95
2022-11-16T16:13:38.638Z,53.08
2022-11-16T16:18:44.288Z,56.10
2022-11-16T16:23:49.017Z,58.67
2022-11-16T16:28:54.189Z,64.55
2022-11-16T16:33:59.563Z,64.53
2022-11-16T16:39:03.343Z,63.72
2022-11-16T16:44:14.064Z,68.70
2022-11-16T16:49:18.059Z,76.63
2022-11-16T16:54:21.907Z,78.10
2022-11-16T16:59:27.090Z,84.97
2022-11-16T17:04:30.886Z,91.77
2022-11-16T17:09:34.749Z,94.57
2022-11-16T17:14:39.998Z,108.70
2022-11-16T17:19:43.819Z,102.77
2022-11-16T17:24:47.668Z,104.00
2022-11-16T17:29:52.879Z,118.45
2022-11-16T17:34:56.675Z,113.17
2022-11-16T17:40:00.504Z,113.60
2022-11-16T17:45:06.352Z,129.48
2022-11-16T17:50:11.055Z,136.00
2022-11-16T17:55:15.018Z,130.10
2022-11-16T18:00:20.774Z,146.45
2022-11-16T18:05:24.570Z,164.02
2022-11-16T18:10:28.397Z,169.63
2022-11-16T18:15:41.920Z,162.63
2022-11-16T18:20:50.849Z,158.93
2022-11-16T18:25:54.900Z,175.05
2022-11-16T18:31:05.214Z,173.88
2022-11-16T18:36:09.968Z,178.52
2022-11-16T18:41:19.745Z,177.38
2022-11-16T18:46:26.588Z,195.68
2022-11-16T18:51:31.971Z,212.80
2022-11-16T18:56:36.308Z,234.90
2022-11-16T19:01:41.478Z,254.90
2022-11-16T19:06:45.368Z,268.27
2022-11-16T19:11:50.787Z,297.30
2022-11-16T19:16:57.425Z,297.92
2022-11-16T19:22:01.352Z,297.90
2022-11-16T19:27:05.208Z,320.58
2022-11-16T19:32:10.391Z,322.55
2022-11-16T19:37:15.160Z,308.83
2022-11-16T19:42:18.956Z,325.08
2022-11-16T19:47:26.361Z,275.15
2022-11-16T19:52:30.209Z,291.13
2022-11-16T19:57:34.201Z,262.48
2022-11-16T20:02:39.366Z,272.73
2022-11-16T20:07:44.713Z,238.63
2022-11-16T20:12:49.886Z,243.03
2022-11-16T20:17:55.295Z,223.50
2022-11-16T20:22:59.250Z,205.45
2022-11-16T20:28:03.089Z,184.35
2022-11-16T20:33:08.466Z,191.73
2022-11-16T20:38:12.256Z,151.53
2022-11-16T20:43:16.071Z,135.57
2022-11-16T20:48:21.486Z,143.63
2022-11-16T20:53:26.621Z,112.90
2022-11-16T20:58:30.669Z,107.73
2022-11-16T21:03:36.469Z,103.80
2022-11-16T21:14:02.774Z,87.47
2022-11-16T21:19:08.232Z,89.68
2022-11-16T21:24:12.519Z,80.32
2022-11-16T21:29:16.394Z,77.93
2022-11-16T21:34:21.665Z,71.32
2022-11-16T21:39:25.471Z,66.80
2022-11-16T21:44:41.880Z,62.55
2022-11-16T21:50:09.814Z,56.38
2022-11-16T21:55:10.881Z,50.97
2022-11-16T22:00:15.941Z,48.60
2022-11-16T22:05:38.723Z,41.10
2022-11-16T22:10:43.307Z,41.58
2022-11-16T22:15:47.620Z,37.95
2022-11-16T22:20:52.868Z,36.88
2022-11-16T22:26:01.604Z,33.60
2022-11-16T22:31:06.743Z,32.10
2022-11-16T22:36:13.406Z,30.45
2022-11-16T22:41:17.194Z,28.55
2022-11-16T22:46:20.971Z,28.17
2022-11-16T22:51:29.228Z,27.17
2022-11-16T22:56:34.062Z,26.92
2022-11-16T23:01:38.361Z,24.63
2022-11-16T23:06:43.530Z,24.38
2022-11-16T23:12:04.855Z,23.90
2022-11-16T23:17:08.644Z,22.77
2022-11-16T23:22:33.316Z,23.17
2022-11-16T23:27:42.172Z,21.80
2022-11-16T23:32:46.027Z,21.02
2022-11-16T23:37:58.046Z,21.23
2022-11-16T23:43:19.375Z,19.20
2022-11-16T23:48:23.142Z,20.35
2022-11-16T23:53:28.298Z,20.95
2022-11-16T23:58:32.098Z,13.87
